TimePDT,TemperatureF,Dew PointF,Humidity,Sea Level PressureIn,VisibilityMPH,Wind Direction,Wind SpeedMPH,Gust SpeedMPH,PrecipitationIn,Events,Conditions,WindDirDegrees,DateUTC
12:56 AM,75.9,48.9,38,29.85,10.0,SW,6.9,-,N/A,,Clear,230,2014-05-25 07:56:00
1:56 AM,69.1,51.1,53,29.84,10.0,SE,6.9,-,N/A,,Clear,130,2014-05-25 08:56:00
2:56 AM,69.1,51.1,53,29.85,10.0,East,3.5,-,N/A,,Clear,90,2014-05-25 09:56:00
3:56 AM,68.0,48.9,50,29.85,10.0,Calm,Calm,-,N/A,,Clear,0,2014-05-25 10:56:00
4:56 AM,68.0,53.1,59,29.86,10.0,Calm,Calm,-,N/A,,Clear,0,2014-05-25 11:56:00
5:56 AM,66.9,50.0,54,29.87,10.0,Calm,Calm,-,N/A,,Clear,0,2014-05-25 12:56:00
6:56 AM,73.9,55.9,53,29.88,10.0,NNW,6.9,-,N/A,,Clear,330,2014-05-25 13:56:00
8:56 AM,82.0,57.0,42,29.88,10.0,NNW,6.9,-,N/A,,Clear,340,2014-05-25 15:56:00
9:56 AM,86.0,53.1,32,29.88,10.0,NNE,8.1,-,N/A,,Clear,30,2014-05-25 16:56:00
10:56 AM,88.0,53.1,30,29.88,10.0,NNE,5.8,-,N/A,,Clear,20,2014-05-25 17:56:00
11:56 AM,91.0,51.1,25,29.88,10.0,Calm,Calm,-,N/A,,Clear,0,2014-05-25 18:56:00
12:56 PM,93.0,50.0,23,29.85,10.0,SE,4.6,-,N/A,,Clear,130,2014-05-25 19:56:00
1:56 PM,95.0,48.9,21,29.82,10.0,Variable,5.8,-,N/A,,Clear,0,2014-05-25 20:56:00
2:56 PM,97.0,46.9,18,29.80,10.0,Variable,3.5,-,N/A,,Clear,0,2014-05-25 21:56:00
3:56 PM,98.1,42.1,15,29.77,10.0,SSE,3.5,-,N/A,,Clear,160,2014-05-25 22:56:00
4:56 PM,99.0,39.9,13,29.75,10.0,Calm,Calm,-,N/A,,Clear,0,2014-05-25 23:56:00
5:56 PM,99.0,39.0,13,29.75,10.0,SSE,4.6,-,N/A,,Clear,160,2014-05-26 00:56:00
6:56 PM,98.1,39.0,13,29.75,10.0,South,5.8,-,N/A,,Clear,180,2014-05-26 01:56:00
7:56 PM,93.0,41.0,16,29.76,10.0,ESE,3.5,-,N/A,,Clear,120,2014-05-26 02:56:00
8:56 PM,87.1,51.1,29,29.79,10.0,SSE,10.4,-,N/A,,Clear,160,2014-05-26 03:56:00